Time,TemperatureF,DewpointF,PressureIn,WindDirection,WindDirectionDegrees,WindSpeedMPH,WindSpeedGustMPH,Humidity,HourlyPrecipIn,Conditions,Clouds,dailyrainin,SolarRadiationWatts/m^2,SoftwareType,DateUTC
2013-02-26 00:01:00,25.0,15.0,-100.00,SSE,156,8.0,13.0,64,0.00,,,0.00,0.000000,,2013-02-26 07:01:00,
2013-02-26 00:11:00,25.0,15.0,-100.00,SSE,156,8.0,13.0,64,0.00,,,0.00,0.000000,,2013-02-26 07:11:00,
2013-02-26 00:42:00,24.0,14.0,-100.00,SE,142,7.0,12.0,64,0.00,,,0.00,0.000000,,2013-02-26 07:42:00,
2013-02-26 00:52:00,24.0,14.0,-100.00,SE,142,7.0,12.0,64,0.00,,,0.00,0.000000,,2013-02-26 07:52:00,
2013-02-26 01:01:00,24.0,14.0,-100.00,SE,142,7.0,12.0,64,0.00,,,0.00,0.000000,,2013-02-26 08:01:00,
2013-02-26 01:11:00,24.0,14.0,-100.00,SE,142,7.0,12.0,64,0.00,,,0.00,0.000000,,2013-02-26 08:11:00,
2013-02-26 01:42:00,24.0,14.0,-100.00,SE,129,4.0,10.0,66,0.00,,,0.00,0.000000,,2013-02-26 08:42:00,
2013-02-26 01:52:00,24.0,14.0,-100.00,SE,129,4.0,10.0,66,0.00,,,0.00,0.000000,,2013-02-26 08:52:00,
2013-02-26 02:01:00,24.0,14.0,-100.00,SE,129,4.0,10.0,66,0.00,,,0.00,0.000000,,2013-02-26 09:01:00,
2013-02-26 02:11:00,24.0,14.0,-100.00,SE,129,4.0,10.0,66,0.00,,,0.00,0.000000,,2013-02-26 09:11:00,
2013-02-26 02:43:00,22.0,16.0,-100.00,SE,135,6.0,9.0,78,0.00,,,0.00,0.000000,,2013-02-26 09:43:00,
2013-02-26 02:52:00,22.0,16.0,-100.00,SE,135,6.0,9.0,78,0.00,,,0.00,0.000000,,2013-02-26 09:52:00,
2013-02-26 03:01:00,22.0,16.0,-100.00,SE,135,6.0,9.0,78,0.00,,,0.00,0.000000,,2013-02-26 10:01:00,
2013-02-26 03:11:00,22.0,16.0,-100.00,SE,135,6.0,9.0,78,0.00,,,0.00,0.000000,,2013-02-26 10:11:00,
2013-02-26 03:42:00,22.0,13.0,-100.00,SE,133,6.0,12.0,67,0.00,,,0.00,0.000000,,2013-02-26 10:42:00,
2013-02-26 03:52:00,22.0,13.0,-100.00,SE,133,6.0,12.0,67,0.00,,,0.00,0.000000,,2013-02-26 10:52:00,
2013-02-26 04:01:00,22.0,13.0,-100.00,SE,133,6.0,12.0,67,0.00,,,0.00,0.000000,,2013-02-26 11:01:00,
2013-02-26 04:11:00,22.0,13.0,-100.00,SE,133,6.0,12.0,67,0.00,,,0.00,0.000000,,2013-02-26 11:11:00,
2013-02-26 04:32:00,22.0,13.0,-100.00,ESE,118,4.0,7.0,67,0.00,,,0.00,0.000000,,2013-02-26 11:32:00,
2013-02-26 04:42:00,22.0,13.0,-100.00,ESE,118,4.0,7.0,67,0.00,,,0.00,0.000000,,2013-02-26 11:42:00,
2013-02-26 04:52:00,22.0,13.0,-100.00,ESE,118,4.0,7.0,67,0.00,,,0.00,0.000000,,2013-02-26 11:52:00,
2013-02-26 05:01:00,22.0,13.0,-100.00,ESE,118,4.0,7.0,67,0.00,,,0.00,0.000000,,2013-02-26 12:01:00,
2013-02-26 05:11:00,22.0,13.0,-100.00,ESE,118,4.0,7.0,67,0.00,,,0.00,0.000000,,2013-02-26 12:11:00,
2013-02-26 05:32:00,19.0,11.0,-100.00,ESE,123,5.0,7.0,72,0.00,,,0.00,0.000000,,2013-02-26 12:32:00,
2013-02-26 05:42:00,19.0,11.0,-100.00,ESE,123,5.0,7.0,72,0.00,,,0.00,0.000000,,2013-02-26 12:42:00,
2013-02-26 05:53:00,19.0,11.0,-100.00,ESE,123,5.0,7.0,72,0.00,,,0.00,0.000000,,2013-02-26 12:53:00,
2013-02-26 06:01:00,19.0,11.0,-100.00,ESE,123,5.0,7.0,72,0.00,,,0.00,0.000000,,2013-02-26 13:01:00,
2013-02-26 06:11:00,19.0,11.0,-100.00,ESE,123,5.0,7.0,72,0.00,,,0.00,0.000000,,2013-02-26 13:11:00,
2013-02-26 06:42:00,21.0,13.0,-100.00,SE,135,6.0,9.0,70,0.00,,,0.00,0.000000,,2013-02-26 13:42:00,
2013-02-26 06:52:00,21.0,13.0,-100.00,SE,135,6.0,9.0,70,0.00,,,0.00,0.000000,,2013-02-26 13:52:00,
2013-02-26 07:01:00,21.0,13.0,-100.00,SE,135,6.0,9.0,70,0.00,,,0.00,0.000000,,2013-02-26 14:01:00,
2013-02-26 07:11:00,21.0,13.0,-100.00,SE,135,6.0,9.0,70,0.00,,,0.00,0.000000,,2013-02-26 14:11:00,
2013-02-26 07:32:00,21.0,13.0,-100.00,SE,132,8.0,11.0,70,0.00,,,0.00,0.000000,,2013-02-26 14:32:00,
2013-02-26 07:42:00,21.0,13.0,-100.00,SE,132,8.0,11.0,70,0.00,,,0.00,0.000000,,2013-02-26 14:42:00,
2013-02-26 07:52:00,21.0,13.0,-100.00,SE,132,8.0,11.0,70,0.00,,,0.00,0.000000,,2013-02-26 14:52:00,
2013-02-26 08:01:00,21.0,13.0,-100.00,SE,132,8.0,11.0,70,0.00,,,0.00,0.000000,,2013-02-26 15:01:00,
2013-02-26 08:11:00,21.0,13.0,-100.00,SE,132,8.0,11.0,70,0.00,,,0.00,0.000000,,2013-02-26 15:11:00,
2013-02-26 08:32:00,21.0,11.0,-100.00,South,177,6.0,11.0,65,0.00,,,0.00,22.000000,,2013-02-26 15:32:00,
2013-02-26 08:42:00,21.0,11.0,-100.00,South,177,6.0,11.0,65,0.00,,,0.00,22.000000,,2013-02-26 15:42:00,
2013-02-26 08:52:00,21.0,11.0,-100.00,South,177,6.0,11.0,65,0.00,,,0.00,22.000000,,2013-02-26 15:52:00,
2013-02-26 09:01:00,21.0,11.0,-100.00,South,177,6.0,11.0,65,0.00,,,0.00,22.000000,,2013-02-26 16:01:00,
2013-02-26 09:11:00,21.0,11.0,-100.00,South,177,6.0,11.0,65,0.00,,,0.00,22.000000,,2013-02-26 16:11:00,
2013-02-26 09:32:00,25.0,13.0,-100.00,SE,139,4.0,7.0,60,0.00,,,0.00,96.000000,,2013-02-26 16:32:00,
2013-02-26 09:42:00,25.0,13.0,-100.00,SE,139,4.0,7.0,60,0.00,,,0.00,96.000000,,2013-02-26 16:42:00,
2013-02-26 09:52:00,25.0,13.0,-100.00,SE,139,4.0,7.0,60,0.00,,,0.00,96.000000,,2013-02-26 16:52:00,
2013-02-26 10:01:00,25.0,13.0,-100.00,SE,139,4.0,7.0,60,0.00,,,0.00,96.000000,,2013-02-26 17:01:00,
2013-02-26 10:11:00,25.0,13.0,-100.00,SE,139,4.0,7.0,60,0.00,,,0.00,96.000000,,2013-02-26 17:11:00,
2013-02-26 10:42:00,26.0,14.0,-100.00,South,182,6.0,7.0,61,0.00,,,0.00,240.000000,,2013-02-26 17:42:00,
2013-02-26 10:52:00,26.0,14.0,-100.00,South,182,6.0,7.0,61,0.00,,,0.00,240.000000,,2013-02-26 17:52:00,
2013-02-26 11:01:00,26.0,14.0,-100.00,South,182,6.0,7.0,61,0.00,,,0.00,240.000000,,2013-02-26 18:01:00,
2013-02-26 11:12:00,26.0,14.0,-100.00,South,182,6.0,7.0,61,0.00,,,0.00,240.000000,,2013-02-26 18:12:00,
2013-02-26 11:32:00,28.0,14.0,-100.00,South,176,5.0,9.0,56,0.00,,,0.00,312.000000,,2013-02-26 18:32:00,
2013-02-26 11:42:00,28.0,14.0,-100.00,South,176,5.0,9.0,56,0.00,,,0.00,312.000000,,2013-02-26 18:42:00,
2013-02-26 11:52:00,28.0,14.0,-100.00,South,176,5.0,9.0,56,0.00,,,0.00,312.000000,,2013-02-26 18:52:00,
2013-02-26 12:01:00,28.0,14.0,-100.00,South,176,5.0,9.0,56,0.00,,,0.00,312.000000,,2013-02-26 19:01:00,
2013-02-26 12:11:00,28.0,14.0,-100.00,South,176,5.0,9.0,56,0.00,,,0.00,312.000000,,2013-02-26 19:11:00,
2013-02-26 12:42:00,31.0,16.0,-100.00,South,177,3.0,9.0,54,0.00,,,0.00,340.000000,,2013-02-26 19:42:00,
2013-02-26 12:52:00,31.0,16.0,-100.00,South,177,3.0,9.0,54,0.00,,,0.00,340.000000,,2013-02-26 19:52:00,
2013-02-26 13:01:00,31.0,16.0,-100.00,South,177,3.0,9.0,54,0.00,,,0.00,340.000000,,2013-02-26 20:01:00,
2013-02-26 13:11:00,31.0,16.0,-100.00,South,177,3.0,9.0,54,0.00,,,0.00,340.000000,,2013-02-26 20:11:00,
2013-02-26 15:42:00,33.0,12.0,-100.00,SW,224,7.0,14.0,42,-99.99,,,0.00,0.000000,,2013-02-26 22:42:00,
2013-02-26 15:52:00,33.0,12.0,-100.00,SW,224,7.0,14.0,42,-99.99,,,0.00,0.000000,,2013-02-26 22:52:00,
2013-02-26 16:01:00,33.0,12.0,-100.00,SW,224,7.0,14.0,42,-99.99,,,0.00,0.000000,,2013-02-26 23:01:00,
2013-02-26 16:11:00,33.0,12.0,-100.00,SW,224,7.0,14.0,42,-99.99,,,0.00,0.000000,,2013-02-26 23:11:00,
2013-02-26 16:42:00,30.0,14.0,-100.00,SW,219,4.0,9.0,51,0.00,,,0.00,0.000000,,2013-02-26 23:42:00,
2013-02-26 16:52:00,30.0,14.0,-100.00,SW,219,4.0,9.0,51,0.00,,,0.00,0.000000,,2013-02-26 23:52:00,
2013-02-26 17:01:00,30.0,14.0,-100.00,SW,219,4.0,9.0,51,0.00,,,0.00,0.000000,,2013-02-27 00:01:00,
2013-02-26 17:11:00,30.0,14.0,-100.00,SW,219,4.0,9.0,51,0.00,,,0.00,0.000000,,2013-02-27 00:11:00,
2013-02-26 17:42:00,28.0,15.0,-100.00,SSW,199,3.0,7.0,57,0.00,,,0.00,0.000000,,2013-02-27 00:42:00,
2013-02-26 17:52:00,28.0,15.0,-100.00,SSW,199,3.0,7.0,57,0.00,,,0.00,0.000000,,2013-02-27 00:52:00,
2013-02-26 18:01:00,28.0,15.0,-100.00,SSW,199,3.0,7.0,57,0.00,,,0.00,0.000000,,2013-02-27 01:01:00,
2013-02-26 18:11:00,28.0,15.0,-100.00,SSW,199,3.0,7.0,57,0.00,,,0.00,0.000000,,2013-02-27 01:11:00,
2013-02-26 18:42:00,26.0,14.0,-100.00,SW,224,5.0,8.0,60,0.00,,,0.00,26.000000,,2013-02-27 01:42:00,
2013-02-26 18:52:00,26.0,14.0,-100.00,SW,224,5.0,8.0,60,0.00,,,0.00,26.000000,,2013-02-27 01:52:00,
2013-02-26 19:01:00,26.0,14.0,-100.00,SW,224,5.0,8.0,60,0.00,,,0.00,26.000000,,2013-02-27 02:01:00,
2013-02-26 19:13:00,26.0,14.0,-100.00,SW,224,5.0,8.0,60,0.00,,,0.00,26.000000,,2013-02-27 02:13:00,
2013-02-26 19:42:00,26.0,14.0,-100.00,SW,221,4.0,6.0,60,0.00,,,0.00,0.000000,,2013-02-27 02:42:00,
2013-02-26 19:52:00,26.0,14.0,-100.00,SW,221,4.0,6.0,60,0.00,,,0.00,0.000000,,2013-02-27 02:52:00,
2013-02-26 20:01:00,26.0,14.0,-100.00,SW,221,4.0,6.0,60,0.00,,,0.00,0.000000,,2013-02-27 03:01:00,
2013-02-26 20:11:00,26.0,14.0,-100.00,SW,221,4.0,6.0,60,0.00,,,0.00,0.000000,,2013-02-27 03:11:00,
2013-02-26 20:32:00,25.0,15.0,-100.00,WSW,250,7.0,9.0,65,0.00,,,0.00,0.000000,,2013-02-27 03:32:00,
2013-02-26 20:42:00,25.0,15.0,-100.00,WSW,250,7.0,9.0,65,0.00,,,0.00,0.000000,,2013-02-27 03:42:00,
2013-02-26 20:52:00,25.0,15.0,-100.00,WSW,250,7.0,9.0,65,0.00,,,0.00,0.000000,,2013-02-27 03:52:00,
2013-02-26 21:01:00,25.0,15.0,-100.00,WSW,250,7.0,9.0,65,0.00,,,0.00,0.000000,,2013-02-27 04:01:00,
2013-02-26 21:11:00,25.0,15.0,-100.00,WSW,250,7.0,9.0,65,0.00,,,0.00,0.000000,,2013-02-27 04:11:00,
2013-02-26 21:42:00,24.0,14.0,-100.00,SSE,165,3.0,7.0,65,0.00,,,0.00,0.000000,,2013-02-27 04:42:00,
2013-02-26 21:52:00,24.0,14.0,-100.00,SSE,165,3.0,7.0,65,0.00,,,0.00,0.000000,,2013-02-27 04:52:00,
2013-02-26 22:01:00,24.0,14.0,-100.00,SSE,165,3.0,7.0,65,0.00,,,0.00,0.000000,,2013-02-27 05:01:00,
2013-02-26 22:11:00,24.0,14.0,-100.00,SSE,165,3.0,7.0,65,0.00,,,0.00,0.000000,,2013-02-27 05:11:00,
2013-02-26 22:42:00,23.0,12.0,-100.00,South,180,3.0,6.0,61,0.00,,,0.00,0.000000,,2013-02-27 05:42:00,
2013-02-26 22:52:00,23.0,12.0,-100.00,South,180,3.0,6.0,61,0.00,,,0.00,0.000000,,2013-02-27 05:52:00,
2013-02-26 23:02:00,23.0,12.0,-100.00,South,180,3.0,6.0,61,0.00,,,0.00,0.000000,,2013-02-27 06:02:00,
2013-02-26 23:11:00,23.0,12.0,-100.00,South,180,3.0,6.0,61,0.00,,,0.00,0.000000,,2013-02-27 06:11:00,
2013-02-26 23:33:00,19.0,9.0,-100.00,ESE,119,6.0,8.0,65,0.00,,,0.00,0.000000,,2013-02-27 06:33:00,
2013-02-26 23:42:00,19.0,9.0,-100.00,ESE,119,6.0,8.0,65,0.00,,,0.00,0.000000,,2013-02-27 06:42:00,
2013-02-26 23:52:00,19.0,9.0,-100.00,ESE,119,6.0,8.0,65,0.00,,,0.00,0.000000,,2013-02-27 06:52:00,